createdAt,value
2023-02-11T00:01:25.288Z,13.97
2023-02-11T00:03:56.190Z,13.73
2023-02-11T00:06:24.899Z,11.97
2023-02-11T00:08:53.762Z,14.10
2023-02-11T00:11:25.511Z,13.10
2023-02-11T00:13:54.323Z,11.97
2023-02-11T00:16:22.943Z,14.27
2023-02-11T00:18:53.141Z,13.03
2023-02-11T00:21:24.924Z,13.00
2023-02-11T00:23:54.970Z,12.17
2023-02-11T00:26:25.206Z,12.57
2023-02-11T00:28:54.454Z,13.07
2023-02-11T00:31:24.383Z,13.13
2023-02-11T00:33:53.472Z,12.83
2023-02-11T00:36:26.048Z,14.57
2023-02-11T00:38:56.954Z,12.93
2023-02-11T00:41:26.088Z,12.70
2023-02-11T00:43:54.828Z,12.33
2023-02-11T00:46:23.508Z,11.43
2023-02-11T00:48:55.120Z,13.57
2023-02-11T00:51:24.977Z,12.17
2023-02-11T00:53:53.418Z,13.07
2023-02-11T00:56:21.935Z,13.23
2023-02-11T00:58:50.734Z,13.10
2023-02-11T01:01:19.017Z,11.47
2023-02-11T01:03:47.532Z,12.90
2023-02-11T01:06:15.896Z,12.93
2023-02-11T01:08:45.871Z,13.77
2023-02-11T01:11:16.649Z,12.20
2023-02-11T01:13:45.605Z,10.70
2023-02-11T01:16:14.680Z,13.50
2023-02-11T01:18:44.429Z,11.50
2023-02-11T01:21:12.999Z,13.33
2023-02-11T01:23:41.511Z,11.47
2023-02-11T01:26:11.167Z,12.30
2023-02-11T01:28:40.109Z,13.43
2023-02-11T01:31:08.505Z,11.07
2023-02-11T01:33:37.267Z,11.67
2023-02-11T01:36:07.579Z,11.97
2023-02-11T01:38:37.296Z,12.13
2023-02-11T01:41:07.985Z,12.57
2023-02-11T01:43:40.282Z,11.50
2023-02-11T01:46:24.508Z,11.30
2023-02-11T01:48:56.787Z,11.30
2023-02-11T01:51:30.592Z,12.37
2023-02-11T01:54:17.652Z,11.30
2023-02-11T01:57:08.416Z,12.87
2023-02-11T01:59:42.858Z,11.30
2023-02-11T02:02:14.819Z,12.00
2023-02-11T02:04:50.477Z,13.43
2023-02-11T02:07:26.286Z,10.90
2023-02-11T02:10:01.672Z,11.97
2023-02-11T02:12:30.257Z,10.73
2023-02-11T02:15:26.401Z,10.90
2023-02-11T02:18:08.757Z,12.30
2023-02-11T02:21:14.641Z,11.53
2023-02-11T02:24:13.856Z,12.10
2023-02-11T02:27:15.049Z,11.50
2023-02-11T02:30:21.216Z,12.23
2023-02-11T02:33:21.587Z,10.57
2023-02-11T02:35:59.499Z,11.27
2023-02-11T02:38:33.337Z,11.93
2023-02-11T02:41:05.561Z,11.97
2023-02-11T02:43:35.280Z,11.67
2023-02-11T02:46:18.445Z,11.97
2023-02-11T02:48:50.537Z,12.90
2023-02-11T02:51:36.424Z,12.20
2023-02-11T02:54:36.966Z,11.93
2023-02-11T02:57:22.071Z,12.57
2023-02-11T03:00:02.869Z,10.33
2023-02-11T03:02:36.034Z,12.33
2023-02-11T03:05:12.860Z,12.70
2023-02-11T03:07:45.950Z,12.20
2023-02-11T03:10:20.504Z,12.73
2023-02-11T03:12:50.705Z,12.60
2023-02-11T03:15:22.188Z,13.13
2023-02-11T03:17:54.216Z,12.07
2023-02-11T03:20:24.572Z,13.00
2023-02-11T03:22:57.047Z,13.00
2023-02-11T03:25:31.260Z,13.30
2023-02-11T03:28:06.802Z,13.13
2023-02-11T03:30:41.713Z,12.77
2023-02-11T03:33:15.410Z,11.77
2023-02-11T03:35:51.899Z,11.63
2023-02-11T03:38:23.633Z,12.57
2023-02-11T03:40:53.996Z,14.67
2023-02-11T03:43:27.290Z,12.50
2023-02-11T03:45:59.977Z,14.03
2023-02-11T03:48:32.610Z,13.73
2023-02-11T03:51:06.423Z,13.57
2023-02-11T03:53:35.111Z,13.33
2023-02-11T03:56:07.377Z,14.97
2023-02-11T03:58:35.732Z,15.07
2023-02-11T04:01:05.226Z,14.07
2023-02-11T04:03:33.486Z,13.40
2023-02-11T04:06:03.459Z,15.53
2023-02-11T04:08:32.053Z,14.63
2023-02-11T04:11:00.711Z,13.13
2023-02-11T04:13:28.994Z,14.53
2023-02-11T04:15:57.620Z,15.13
2023-02-11T04:18:25.975Z,14.43
2023-02-11T04:20:54.656Z,15.23
2023-02-11T04:23:24.349Z,14.27
2023-02-11T04:25:53.161Z,14.97
2023-02-11T04:28:22.068Z,14.97
2023-02-11T04:30:51.699Z,15.57
2023-02-11T04:33:20.026Z,14.63
2023-02-11T04:35:48.810Z,15.50
2023-02-11T04:38:17.716Z,16.17
2023-02-11T04:40:47.719Z,14.90
2023-02-11T04:43:15.989Z,14.40
2023-02-11T04:45:44.500Z,14.60
2023-02-11T04:48:12.759Z,14.03
2023-02-11T04:50:41.331Z,13.97
2023-02-11T04:53:09.515Z,15.67
2023-02-11T04:55:38.023Z,16.33
2023-02-11T04:58:07.594Z,15.70
2023-02-11T05:00:36.315Z,15.77
2023-02-11T05:03:04.813Z,17.07
2023-02-11T05:05:33.867Z,15.53
2023-02-11T05:08:02.091Z,17.50
2023-02-11T05:10:30.954Z,14.73
2023-02-11T05:12:59.237Z,17.67
2023-02-11T05:15:29.348Z,18.10
2023-02-11T05:17:57.528Z,14.07
2023-02-11T05:20:26.497Z,17.60
2023-02-11T05:22:54.771Z,17.23
2023-02-11T05:25:23.342Z,15.47
2023-02-11T05:27:51.617Z,15.37
2023-02-11T05:30:20.455Z,15.63
2023-02-11T05:32:49.961Z,15.30
2023-02-11T05:35:18.845Z,15.83
2023-02-11T05:37:47.132Z,15.73
2023-02-11T05:40:15.951Z,16.70
2023-02-11T05:42:44.144Z,16.00
2023-02-11T05:45:12.713Z,16.27
2023-02-11T05:47:40.940Z,17.37
2023-02-11T05:50:11.873Z,17.13
2023-02-11T05:52:40.309Z,15.07
2023-02-11T05:55:09.524Z,15.27
2023-02-11T05:57:37.686Z,15.33
2023-02-11T06:00:07.928Z,16.37
2023-02-11T06:02:36.278Z,15.03
2023-02-11T06:05:04.996Z,17.90
2023-02-11T06:07:34.752Z,17.33
2023-02-11T06:10:03.596Z,15.57
2023-02-11T06:12:31.947Z,16.60
2023-02-11T06:15:00.588Z,18.10
2023-02-11T06:17:31.712Z,16.30
2023-02-11T06:20:00.982Z,16.27
2023-02-11T06:22:29.143Z,15.77
2023-02-11T06:25:02.054Z,16.83
2023-02-11T06:27:31.027Z,15.27
2023-02-11T06:29:59.741Z,16.77
2023-02-11T06:32:44.046Z,16.50
2023-02-11T06:35:13.825Z,16.40
2023-02-11T06:37:42.669Z,16.60
2023-02-11T06:40:13.475Z,15.67
2023-02-11T06:42:42.642Z,18.20
2023-02-11T06:45:13.191Z,15.93
2023-02-11T06:47:42.445Z,18.07
2023-02-11T06:50:14.842Z,18.43
2023-02-11T06:52:43.188Z,18.33
2023-02-11T06:55:13.418Z,19.10
2023-02-11T06:57:41.806Z,18.63
2023-02-11T07:00:11.896Z,17.20
2023-02-11T07:02:40.418Z,17.47
2023-02-11T07:05:11.157Z,18.27
2023-02-11T07:07:39.630Z,17.63
2023-02-11T07:10:08.751Z,16.57
2023-02-11T07:12:38.402Z,14.23
2023-02-11T07:15:07.520Z,18.90
2023-02-11T07:17:36.181Z,18.97
2023-02-11T07:20:05.497Z,17.43
2023-02-11T07:22:35.327Z,18.60
2023-02-11T07:25:04.397Z,18.10
2023-02-11T07:27:32.696Z,16.93
2023-02-11T07:30:03.783Z,16.07
2023-02-11T07:32:33.126Z,17.27
2023-02-11T07:35:01.771Z,16.53
2023-02-11T07:37:30.090Z,16.73
2023-02-11T07:39:58.649Z,18.13
2023-02-11T07:42:27.005Z,18.13
2023-02-11T07:44:55.708Z,16.70
2023-02-11T07:47:25.556Z,16.27
2023-02-11T07:49:56.582Z,17.97
2023-02-11T07:52:25.050Z,17.07
2023-02-11T07:54:53.599Z,17.00
2023-02-11T07:57:22.055Z,17.03
2023-02-11T07:59:50.608Z,17.13
2023-02-11T08:02:18.886Z,17.83
2023-02-11T08:04:48.989Z,16.70
2023-02-11T08:07:17.649Z,16.97
2023-02-11T08:09:46.475Z,16.93
2023-02-11T08:12:14.841Z,16.53
2023-02-11T08:14:43.678Z,17.37
2023-02-11T08:17:12.112Z,17.30
2023-02-11T08:19:40.746Z,16.20
2023-02-11T08:22:10.743Z,16.10
2023-02-11T08:24:39.257Z,16.03
2023-02-11T08:27:07.652Z,16.33
2023-02-11T08:29:36.552Z,15.47
2023-02-11T08:32:05.697Z,14.97
2023-02-11T08:34:34.288Z,16.93
2023-02-11T08:37:02.633Z,16.27
2023-02-11T08:39:32.470Z,15.43
2023-02-11T08:42:00.866Z,16.30
2023-02-11T08:44:30.005Z,14.77
2023-02-11T08:46:58.323Z,16.37
2023-02-11T08:49:26.812Z,15.33
2023-02-11T08:51:56.255Z,15.97
2023-02-11T08:54:24.694Z,17.30
2023-02-11T08:56:54.618Z,15.20
2023-02-11T08:59:23.126Z,16.57
2023-02-11T09:01:51.677Z,16.97
2023-02-11T09:04:20.502Z,16.53
2023-02-11T09:06:49.512Z,17.53
2023-02-11T09:09:18.426Z,17.00
2023-02-11T09:11:47.734Z,16.10
2023-02-11T09:14:20.375Z,16.03
2023-02-11T09:16:49.708Z,16.00
2023-02-11T09:19:19.648Z,17.10
2023-02-11T09:21:48.288Z,17.37
2023-02-11T09:24:17.175Z,17.03
2023-02-11T09:26:45.685Z,18.43
2023-02-11T09:29:14.259Z,18.47
2023-02-11T09:31:44.090Z,17.47
2023-02-11T09:34:13.597Z,17.47
2023-02-11T09:36:42.324Z,18.83
2023-02-11T09:39:14.412Z,18.23
2023-02-11T09:42:11.802Z,17.67
2023-02-11T09:44:45.192Z,17.87
2023-02-11T09:47:25.121Z,17.77
2023-02-11T09:49:59.993Z,17.87
2023-02-11T09:52:37.080Z,16.97
2023-02-11T09:55:13.815Z,16.40
2023-02-11T09:57:42.082Z,18.57
2023-02-11T10:00:21.451Z,17.57
2023-02-11T10:03:12.933Z,16.87
2023-02-11T10:06:08.912Z,15.10
2023-02-11T10:08:45.308Z,17.33
2023-02-11T10:11:31.635Z,17.57
2023-02-11T10:14:12.152Z,14.73
2023-02-11T10:16:58.596Z,16.47
2023-02-11T10:19:46.595Z,14.83
2023-02-11T10:22:20.542Z,15.80
2023-02-11T10:24:53.426Z,17.33
2023-02-11T10:27:25.341Z,16.33
2023-02-11T10:29:58.295Z,17.83
2023-02-11T10:32:33.794Z,16.40
2023-02-11T10:35:16.322Z,17.63
2023-02-11T10:37:45.018Z,16.43
2023-02-11T10:40:15.813Z,16.83
2023-02-11T10:42:48.812Z,16.27
2023-02-11T10:45:23.023Z,14.03
2023-02-11T10:47:51.869Z,15.10
2023-02-11T10:50:25.237Z,14.27
2023-02-11T10:52:53.978Z,15.90
2023-02-11T10:55:27.835Z,15.83
2023-02-11T10:58:01.474Z,13.07
2023-02-11T11:00:38.846Z,14.37
2023-02-11T11:03:17.881Z,14.13
2023-02-11T11:05:50.621Z,12.73
2023-02-11T11:08:20.549Z,14.17
2023-02-11T11:11:03.783Z,12.17
2023-02-11T11:13:34.197Z,13.47
2023-02-11T11:16:23.672Z,13.13
2023-02-11T11:18:53.989Z,13.10
2023-02-11T11:21:26.035Z,12.47
2023-02-11T11:23:58.135Z,11.17
2023-02-11T11:26:28.370Z,12.70
2023-02-11T11:29:03.496Z,10.87
2023-02-11T11:31:35.178Z,12.17
2023-02-11T11:34:18.362Z,11.83
2023-02-11T11:36:48.022Z,11.37
2023-02-11T11:39:22.361Z,11.70
2023-02-11T11:41:53.229Z,11.23
2023-02-11T11:44:28.882Z,12.07
2023-02-11T11:47:26.341Z,12.23
2023-02-11T11:50:16.031Z,10.30
2023-02-11T11:52:52.088Z,12.30
2023-02-11T11:55:23.436Z,10.13
2023-02-11T11:57:52.425Z,9.93
2023-02-11T12:00:25.085Z,10.70
2023-02-11T12:03:29.448Z,10.97
2023-02-11T12:06:17.049Z,11.37
2023-02-11T12:08:58.421Z,9.57
2023-02-11T12:11:37.754Z,10.27
2023-02-11T12:14:18.470Z,11.23
2023-02-11T12:16:57.098Z,9.33
2023-02-11T12:20:01.537Z,10.17
2023-02-11T12:22:40.826Z,9.77
2023-02-11T12:25:27.932Z,10.73
2023-02-11T12:28:08.582Z,8.20
2023-02-11T12:30:55.043Z,9.23
2023-02-11T12:33:39.957Z,10.30
2023-02-11T12:36:16.156Z,9.73
2023-02-11T12:39:07.113Z,9.40
2023-02-11T12:42:15.273Z,10.17
2023-02-11T12:44:59.706Z,8.10
2023-02-11T12:47:35.760Z,9.33
2023-02-11T12:50:14.938Z,8.53
2023-02-11T12:52:59.494Z,8.57
2023-02-11T12:55:32.118Z,7.53
2023-02-11T12:58:03.165Z,7.97
2023-02-11T13:00:43.572Z,7.93
2023-02-11T13:03:16.927Z,7.43
2023-02-11T13:05:49.607Z,8.00
2023-02-11T13:08:22.070Z,7.77
2023-02-11T13:10:55.066Z,7.40
2023-02-11T13:13:28.894Z,7.03
2023-02-11T13:16:04.473Z,7.13
2023-02-11T13:18:49.334Z,7.77
2023-02-11T13:21:37.673Z,7.03
2023-02-11T13:24:20.973Z,7.87
2023-02-11T13:26:59.154Z,7.23
2023-02-11T13:29:37.337Z,6.73
2023-02-11T13:32:10.929Z,8.13
2023-02-11T13:34:59.123Z,8.00
2023-02-11T13:37:31.666Z,8.80
2023-02-11T13:40:02.091Z,9.70
2023-02-11T13:42:32.241Z,9.43
2023-02-11T13:45:02.299Z,8.47
2023-02-11T13:47:34.519Z,8.60
2023-02-11T13:50:06.783Z,8.57
2023-02-11T13:52:38.064Z,6.40
2023-02-11T13:55:21.592Z,7.77
2023-02-11T13:58:23.565Z,7.17
2023-02-11T14:00:53.766Z,7.70
2023-02-11T14:03:57.485Z,7.30
2023-02-11T14:06:45.912Z,7.20
2023-02-11T14:09:40.259Z,7.97
2023-02-11T14:12:38.586Z,7.60
2023-02-11T14:15:39.441Z,5.30
2023-02-11T14:18:40.052Z,6.40
2023-02-11T14:21:14.384Z,6.87
2023-02-11T14:23:43.283Z,7.30
2023-02-11T14:26:36.244Z,7.63
2023-02-11T14:29:10.749Z,6.67
2023-02-11T14:31:43.724Z,6.43
2023-02-11T14:34:43.718Z,6.90
2023-02-11T14:37:28.545Z,6.93
2023-02-11T14:40:05.669Z,8.27
2023-02-11T14:42:35.991Z,13.37
2023-02-11T14:45:07.832Z,11.60
2023-02-11T14:47:43.405Z,11.03
2023-02-11T14:50:20.320Z,12.35
2023-02-11T14:52:51.134Z,14.27
2023-02-11T14:55:30.595Z,11.50
2023-02-11T14:58:13.824Z,11.80
2023-02-11T15:00:50.719Z,11.23
2023-02-11T15:03:36.803Z,11.27
2023-02-11T15:06:14.074Z,10.73
2023-02-11T15:08:46.728Z,10.77
2023-02-11T15:11:18.710Z,10.00
2023-02-11T15:13:49.836Z,9.50
2023-02-11T15:16:22.171Z,13.57
2023-02-11T15:18:54.318Z,13.60
2023-02-11T15:21:26.735Z,10.70
2023-02-11T15:24:00.649Z,10.70
2023-02-11T15:26:29.947Z,12.00
2023-02-11T15:28:58.564Z,9.80
2023-02-11T15:31:28.701Z,11.40
2023-02-11T15:34:07.789Z,9.03
2023-02-11T15:36:38.855Z,10.40
2023-02-11T15:39:29.023Z,9.07
2023-02-11T15:41:57.631Z,8.40
2023-02-11T15:44:31.434Z,9.27
2023-02-11T15:47:00.525Z,9.47
2023-02-11T15:49:29.169Z,8.80
2023-02-11T15:51:59.390Z,8.00
2023-02-11T15:54:32.094Z,8.40
2023-02-11T15:57:08.211Z,9.20
2023-02-11T15:59:40.371Z,8.97
2023-02-11T16:02:16.914Z,9.23
2023-02-11T16:04:52.355Z,9.47
2023-02-11T16:07:42.345Z,9.33
2023-02-11T16:10:30.491Z,8.33
2023-02-11T16:13:19.437Z,8.70
2023-02-11T16:15:52.416Z,9.00
2023-02-11T16:18:40.011Z,9.60
2023-02-11T16:21:16.773Z,8.67
2023-02-11T16:23:52.199Z,8.87
2023-02-11T16:26:28.330Z,9.20
2023-02-11T16:29:05.490Z,9.30
2023-02-11T16:31:35.632Z,9.13
2023-02-11T16:34:03.868Z,9.27
2023-02-11T16:36:32.594Z,8.93
2023-02-11T16:39:02.330Z,9.20
2023-02-11T16:41:31.053Z,9.17
2023-02-11T16:43:59.386Z,11.07
2023-02-11T16:46:28.045Z,10.47
2023-02-11T16:48:57.733Z,9.83
2023-02-11T16:51:26.778Z,12.03
2023-02-11T16:53:55.100Z,11.37
2023-02-11T16:56:24.860Z,9.57
2023-02-11T16:58:53.098Z,10.17
2023-02-11T17:01:21.725Z,10.23
2023-02-11T17:03:50.361Z,10.07
2023-02-11T17:06:18.881Z,8.87
2023-02-11T17:08:47.073Z,9.73
2023-02-11T17:11:17.386Z,8.80
2023-02-11T17:13:47.015Z,8.70
2023-02-11T17:16:19.271Z,9.57
2023-02-11T17:18:48.278Z,8.80
2023-02-11T17:21:17.134Z,8.57
2023-02-11T17:23:46.042Z,8.67
2023-02-11T17:26:14.600Z,8.03
2023-02-11T17:28:43.390Z,7.83
2023-02-11T17:31:13.339Z,7.07
2023-02-11T17:33:41.687Z,7.27
2023-02-11T17:36:11.684Z,7.87
2023-02-11T17:38:40.090Z,6.63
2023-02-11T17:41:10.117Z,6.63
2023-02-11T17:43:38.261Z,7.07
2023-02-11T17:46:08.443Z,6.90
2023-02-11T17:48:39.933Z,6.03
2023-02-11T17:51:23.970Z,6.03
2023-02-11T17:53:52.576Z,6.03
2023-02-11T17:56:21.552Z,6.93
2023-02-11T17:58:49.736Z,7.77
2023-02-11T18:01:18.430Z,6.00
2023-02-11T18:03:48.088Z,6.93
2023-02-11T18:06:16.702Z,6.57
2023-02-11T18:08:45.155Z,6.40
2023-02-11T18:11:15.095Z,7.20
2023-02-11T18:13:43.768Z,7.47
2023-02-11T18:16:15.661Z,6.40
2023-02-11T18:18:44.222Z,6.93
2023-02-11T18:21:16.043Z,7.90
2023-02-11T18:23:44.559Z,8.37
2023-02-11T18:26:14.743Z,7.50
2023-02-11T18:28:45.720Z,7.93
2023-02-11T18:31:15.120Z,7.47
2023-02-11T18:33:44.417Z,7.43
2023-02-11T18:36:16.414Z,8.27
2023-02-11T18:38:45.187Z,8.53
2023-02-11T18:41:14.237Z,8.43
2023-02-11T18:43:43.072Z,7.63
2023-02-11T18:46:13.919Z,8.07
2023-02-11T18:48:44.741Z,8.63
2023-02-11T18:51:18.354Z,8.87
2023-02-11T18:53:47.110Z,8.83
2023-02-11T18:56:17.615Z,9.23
2023-02-11T18:58:46.220Z,8.93
2023-02-11T19:01:16.693Z,9.03
2023-02-11T19:03:45.396Z,8.90
2023-02-11T19:06:20.409Z,9.20
2023-02-11T19:08:48.705Z,10.50
2023-02-11T19:11:18.754Z,9.93
2023-02-11T19:13:48.004Z,9.03
2023-02-11T19:16:19.685Z,9.87
2023-02-11T19:18:47.988Z,9.83
2023-02-11T19:21:17.826Z,9.60
2023-02-11T19:23:46.074Z,9.27
2023-02-11T19:26:14.883Z,9.40
2023-02-11T19:28:44.703Z,10.67
2023-02-11T19:31:13.642Z,8.70
2023-02-11T19:33:42.290Z,9.37
2023-02-11T19:36:11.968Z,10.57
2023-02-11T19:38:41.544Z,11.80
2023-02-11T19:41:10.327Z,11.07
2023-02-11T19:43:41.496Z,13.57
2023-02-11T19:46:10.157Z,14.63
2023-02-11T19:48:38.723Z,11.10
2023-02-11T19:51:13.359Z,11.93
2023-02-11T19:53:43.360Z,13.17
2023-02-11T19:56:12.840Z,11.97
2023-02-11T19:58:41.666Z,12.03
2023-02-11T20:01:12.315Z,12.83
2023-02-11T20:03:42.558Z,13.70
2023-02-11T20:06:14.060Z,13.00
2023-02-11T20:08:44.140Z,13.07
2023-02-11T20:11:15.312Z,12.97
2023-02-11T20:13:44.632Z,13.10
2023-02-11T20:16:16.636Z,12.97
2023-02-11T20:18:45.748Z,12.10
2023-02-11T20:21:16.376Z,13.27
2023-02-11T20:23:46.702Z,14.40
2023-02-11T20:26:18.147Z,13.83
2023-02-11T20:28:47.133Z,13.33
2023-02-11T20:31:16.179Z,11.63
2023-02-11T20:33:45.529Z,12.33
2023-02-11T20:36:17.605Z,12.03
2023-02-11T20:38:47.974Z,12.50
2023-02-11T20:41:18.320Z,12.33
2023-02-11T20:43:48.930Z,12.30
2023-02-11T20:46:19.454Z,12.47
2023-02-11T20:48:48.281Z,11.23
2023-02-11T20:51:19.141Z,12.53
2023-02-11T20:53:51.629Z,11.53
2023-02-11T20:56:22.468Z,11.53
2023-02-11T20:58:51.991Z,13.30
2023-02-11T21:01:23.122Z,12.17
2023-02-11T21:03:53.910Z,12.47
2023-02-11T21:06:23.762Z,12.07
2023-02-11T21:08:53.795Z,12.03
2023-02-11T21:11:22.353Z,10.67
2023-02-11T21:13:51.112Z,10.67
2023-02-11T21:16:21.589Z,10.07
2023-02-11T21:18:52.331Z,10.77
2023-02-11T21:21:21.555Z,10.40
2023-02-11T21:23:50.213Z,10.13
2023-02-11T21:26:20.379Z,10.27
2023-02-11T21:28:49.516Z,7.77
2023-02-11T21:31:21.706Z,8.37
2023-02-11T21:33:50.307Z,7.83
2023-02-11T21:36:18.925Z,7.07
2023-02-11T21:38:47.490Z,7.53
2023-02-11T21:41:15.926Z,7.50
2023-02-11T21:43:45.813Z,6.17
2023-02-11T21:46:16.596Z,7.00
2023-02-11T21:48:44.938Z,7.10
2023-02-11T21:51:18.022Z,5.33
2023-02-11T21:53:46.795Z,6.53
2023-02-11T21:56:17.491Z,5.97
2023-02-11T21:58:47.857Z,5.09
2023-02-11T22:01:19.143Z,6.33
2023-02-11T22:03:48.228Z,5.90
2023-02-11T22:06:21.279Z,8.17
2023-02-11T22:08:50.424Z,4.97
2023-02-11T22:11:19.376Z,6.07
2023-02-11T22:13:49.065Z,5.03
2023-02-11T22:16:18.656Z,5.23
2023-02-11T22:18:46.976Z,5.63
2023-02-11T22:21:17.252Z,5.90
2023-02-11T22:23:45.967Z,7.47
2023-02-11T22:26:16.807Z,5.30
2023-02-11T22:28:45.331Z,3.40
2023-02-11T22:31:17.810Z,6.27
2023-02-11T22:33:46.626Z,5.20
2023-02-11T22:36:18.382Z,4.87
2023-02-11T22:38:47.564Z,4.40
2023-02-11T22:41:16.894Z,4.97
2023-02-11T22:43:45.639Z,5.70
2023-02-11T22:46:18.544Z,4.70
2023-02-11T22:48:47.452Z,5.83
2023-02-11T22:51:18.064Z,4.70
2023-02-11T22:53:50.434Z,5.30
2023-02-11T22:56:19.227Z,4.50
2023-02-11T22:58:47.731Z,5.20
2023-02-11T23:01:18.199Z,5.50
2023-02-11T23:03:47.251Z,5.23
2023-02-11T23:06:16.305Z,5.53
2023-02-11T23:08:45.131Z,5.63
2023-02-11T23:11:16.701Z,6.40
2023-02-11T23:13:46.357Z,5.57
2023-02-11T23:16:18.210Z,4.97
2023-02-11T23:18:47.564Z,5.23
2023-02-11T23:21:18.137Z,5.27
2023-02-11T23:23:46.905Z,3.73
2023-02-11T23:26:18.419Z,4.23
2023-02-11T23:28:47.575Z,5.83
2023-02-11T23:31:20.089Z,5.30
2023-02-11T23:33:49.859Z,4.80
2023-02-11T23:36:19.834Z,4.50
2023-02-11T23:38:48.925Z,5.43
2023-02-11T23:41:18.386Z,4.30
2023-02-11T23:43:50.866Z,4.77
2023-02-11T23:46:22.013Z,4.87
2023-02-11T23:48:51.012Z,4.20
2023-02-11T23:51:20.118Z,4.23
2023-02-11T23:53:49.426Z,5.17
2023-02-11T23:56:20.538Z,4.77
2023-02-11T23:58:50.339Z,4.60
